createdAt,value
2022-11-12T00:01:02.716Z,103050.84
2022-11-12T00:03:29.720Z,103052.28
2022-11-12T00:05:56.750Z,103052.03
2022-11-12T00:08:24.158Z,103055.00
2022-11-12T00:10:51.416Z,103053.22
2022-11-12T00:13:18.666Z,103055.56
2022-11-12T00:15:47.221Z,103053.88
2022-11-12T00:18:14.374Z,103039.16
2022-11-12T00:20:41.520Z,103049.88
2022-11-12T00:23:08.830Z,103046.44
2022-11-12T00:25:35.892Z,103049.00
2022-11-12T00:28:04.953Z,103045.31
2022-11-12T00:30:32.108Z,103048.28
2022-11-12T00:33:02.611Z,103051.63
2022-11-12T00:35:32.087Z,103039.75
2022-11-12T00:37:59.279Z,103051.41
2022-11-12T00:40:26.810Z,103043.47
2022-11-12T00:42:54.107Z,103056.28
2022-11-12T00:45:21.264Z,103052.84
2022-11-12T00:47:48.700Z,103059.72
2022-11-12T00:50:16.448Z,103053.16
2022-11-12T00:52:43.821Z,103059.44
2022-11-12T00:55:11.319Z,103058.00
2022-11-12T00:57:38.367Z,103058.13
2022-11-12T01:00:06.706Z,103053.22
2022-11-12T01:02:40.659Z,103055.00
2022-11-12T01:05:10.367Z,103050.91
2022-11-12T01:07:37.434Z,103050.22
2022-11-12T01:10:05.517Z,103029.25
2022-11-12T01:12:32.534Z,103038.94
2022-11-12T01:14:59.913Z,103039.97
2022-11-12T01:17:27.034Z,103037.41
2022-11-12T01:19:54.029Z,103031.38
2022-11-12T01:22:21.036Z,103027.81
2022-11-12T01:24:48.022Z,103031.81
2022-11-12T01:27:15.052Z,103032.34
2022-11-12T01:29:42.120Z,103042.19
2022-11-12T01:32:09.154Z,103041.16
2022-11-12T01:34:36.539Z,103036.03
2022-11-12T01:37:03.562Z,103043.97
2022-11-12T01:39:30.578Z,103049.88
2022-11-12T01:41:57.566Z,103052.34
2022-11-12T01:44:29.311Z,103042.19
2022-11-12T01:47:02.611Z,103043.88
2022-11-12T01:49:56.301Z,103035.25
2022-11-12T01:52:35.369Z,103031.56
2022-11-12T01:55:08.003Z,103034.91
2022-11-12T01:57:41.573Z,103048.75
2022-11-12T02:00:11.538Z,103042.75
2022-11-12T02:02:39.570Z,103040.94
2022-11-12T02:05:10.318Z,103043.63
2022-11-12T02:07:40.770Z,103037.47
2022-11-12T02:10:10.091Z,103034.00
2022-11-12T02:12:56.783Z,103039.16
2022-11-12T02:15:23.829Z,103037.34
2022-11-12T02:17:51.079Z,103029.44
2022-11-12T02:20:18.741Z,103024.84
2022-11-12T02:22:45.948Z,103029.75
2022-11-12T02:25:17.586Z,103029.50
2022-11-12T02:27:45.189Z,103028.47
2022-11-12T02:30:12.628Z,103023.91
2022-11-12T02:32:40.103Z,103022.78
2022-11-12T02:35:07.515Z,103018.94
2022-11-12T02:37:34.536Z,103021.81
2022-11-12T02:40:01.617Z,103026.25
2022-11-12T02:42:28.622Z,103022.41
2022-11-12T02:44:55.676Z,103021.16
2022-11-12T02:47:22.668Z,103018.88
2022-11-12T02:49:49.689Z,103015.94
2022-11-12T02:52:16.714Z,103015.59
2022-11-12T02:54:43.769Z,103011.78
2022-11-12T02:57:10.867Z,103003.59
2022-11-12T02:59:37.883Z,103008.59
2022-11-12T03:02:04.967Z,103012.69
2022-11-12T03:04:32.111Z,103024.25
2022-11-12T03:06:59.258Z,103009.03
2022-11-12T03:09:26.305Z,103012.38
2022-11-12T03:11:53.339Z,102994.59
2022-11-12T03:14:20.380Z,103005.34
2022-11-12T03:16:47.451Z,103010.19
2022-11-12T03:19:14.470Z,103012.97
2022-11-12T03:21:41.501Z,103004.41
2022-11-12T03:24:08.506Z,103011.44
2022-11-12T03:26:36.183Z,103007.69
2022-11-12T03:29:03.460Z,103007.69
2022-11-12T03:31:30.467Z,103000.66
2022-11-12T03:33:57.475Z,103012.84
2022-11-12T03:36:24.575Z,103013.34
2022-11-12T03:38:51.645Z,103009.16
2022-11-12T03:41:18.644Z,103010.56
2022-11-12T03:43:45.798Z,103010.19
2022-11-12T03:46:13.406Z,103008.03
2022-11-12T03:48:40.448Z,103006.78
2022-11-12T03:51:07.456Z,103007.31
2022-11-12T03:53:34.512Z,102997.09
2022-11-12T03:56:01.573Z,103004.59
2022-11-12T03:58:28.855Z,103009.88
2022-11-12T04:00:56.134Z,103012.06
2022-11-12T04:03:23.208Z,103012.56
2022-11-12T04:06:09.298Z,103017.56
2022-11-12T04:08:36.632Z,103022.69
2022-11-12T04:11:05.218Z,103009.13
2022-11-12T04:13:32.406Z,103009.13
2022-11-12T04:16:20.781Z,103018.22
2022-11-12T04:19:09.244Z,103011.72
2022-11-12T04:21:55.827Z,103016.31
2022-11-12T04:24:56.665Z,103017.34
2022-11-12T04:27:29.415Z,103016.56
2022-11-12T04:30:15.778Z,103022.97
2022-11-12T04:32:51.161Z,103029.66
2022-11-12T04:35:19.213Z,103030.13
2022-11-12T04:37:47.467Z,103029.75
2022-11-12T04:40:34.483Z,103017.50
2022-11-12T04:43:21.318Z,103024.91
2022-11-12T04:45:51.209Z,103021.84
2022-11-12T04:48:19.143Z,103018.88
2022-11-12T04:50:49.712Z,103007.22
2022-11-12T04:53:16.968Z,103015.56
2022-11-12T04:55:43.996Z,103007.63
2022-11-12T04:58:12.037Z,103021.44
2022-11-12T05:00:39.328Z,102999.19
2022-11-12T05:03:06.655Z,103000.59
2022-11-12T05:05:34.333Z,103004.66
2022-11-12T05:08:02.225Z,103007.75
2022-11-12T05:10:30.176Z,102999.19
2022-11-12T05:12:57.266Z,103002.00
2022-11-12T05:15:24.827Z,102990.72
2022-11-12T05:17:52.040Z,102988.81
2022-11-12T05:20:19.160Z,102979.75
2022-11-12T05:23:04.474Z,102986.63
2022-11-12T05:25:33.432Z,102976.28
2022-11-12T05:28:00.475Z,102979.59
2022-11-12T05:30:27.547Z,102981.50
2022-11-12T05:32:54.566Z,102984.06
2022-11-12T05:35:21.569Z,102979.75
2022-11-12T05:37:48.714Z,102976.56
2022-11-12T05:40:15.909Z,102972.44
2022-11-12T05:42:44.326Z,102980.25
2022-11-12T05:45:11.395Z,102984.09
2022-11-12T05:47:40.733Z,102983.84
2022-11-12T05:50:08.366Z,102976.41
2022-11-12T05:52:35.734Z,102974.25
2022-11-12T05:55:02.772Z,102971.41
2022-11-12T05:57:29.803Z,102992.78
2022-11-12T05:59:56.981Z,102983.81
2022-11-12T06:02:24.229Z,102988.28
2022-11-12T06:04:51.340Z,102981.25
2022-11-12T06:07:18.670Z,102984.47
2022-11-12T06:09:45.792Z,102976.41
2022-11-12T06:12:12.810Z,102982.91
2022-11-12T06:14:40.298Z,102988.03
2022-11-12T06:17:12.961Z,102990.47
2022-11-12T06:19:40.424Z,102987.91
2022-11-12T06:22:10.510Z,102994.31
2022-11-12T06:24:37.504Z,102991.59
2022-11-12T06:27:06.942Z,102984.84
2022-11-12T06:29:36.803Z,102988.16
2022-11-12T06:32:03.970Z,102973.94
2022-11-12T06:34:31.007Z,102988.16
2022-11-12T06:36:58.070Z,102994.31
2022-11-12T06:39:25.068Z,103002.72
2022-11-12T06:41:52.111Z,102989.69
2022-11-12T06:44:22.256Z,102995.31
2022-11-12T06:46:50.848Z,102989.56
2022-11-12T06:49:17.946Z,102996.34
2022-11-12T06:51:45.160Z,102996.47
2022-11-12T06:54:12.254Z,102998.13
2022-11-12T06:56:39.322Z,103006.03
2022-11-12T06:59:06.602Z,103001.84
2022-11-12T07:01:33.658Z,102991.75
2022-11-12T07:04:00.806Z,103009.16
2022-11-12T07:06:27.811Z,103007.75
2022-11-12T07:08:54.926Z,103020.41
2022-11-12T07:11:21.949Z,103009.41
2022-11-12T07:13:49.059Z,103013.25
2022-11-12T07:16:18.941Z,103016.06
2022-11-12T07:18:47.025Z,103017.88
2022-11-12T07:21:16.754Z,103023.22
2022-11-12T07:23:44.595Z,103033.63
2022-11-12T07:26:23.254Z,103036.16
2022-11-12T07:28:52.126Z,103038.84
2022-11-12T07:31:20.471Z,103035.75
2022-11-12T07:33:50.513Z,103044.59
2022-11-12T07:36:19.868Z,103040.63
2022-11-12T07:38:50.178Z,103042.56
2022-11-12T07:41:20.180Z,103037.81
2022-11-12T07:43:48.759Z,103035.25
2022-11-12T07:46:20.145Z,103033.06
2022-11-12T07:48:47.472Z,103014.00
2022-11-12T07:51:26.305Z,103033.97
2022-11-12T07:53:59.201Z,103036.78
2022-11-12T07:56:28.032Z,103031.94
2022-11-12T07:58:55.048Z,103041.91
2022-11-12T08:01:39.790Z,103022.19
2022-11-12T08:04:11.829Z,103039.84
2022-11-12T08:06:39.296Z,103043.16
2022-11-12T08:09:10.950Z,103041.59
2022-11-12T08:11:38.023Z,103043.28
2022-11-12T08:14:05.609Z,103056.44
2022-11-12T08:16:32.771Z,103044.78
2022-11-12T08:19:00.853Z,103053.09
2022-11-12T08:21:27.837Z,103052.53
2022-11-12T08:23:54.861Z,103053.28
2022-11-12T08:26:21.918Z,103049.44
2022-11-12T08:28:48.954Z,103044.81
2022-11-12T08:31:22.303Z,103055.25
2022-11-12T08:33:50.327Z,103051.63
2022-11-12T08:36:18.007Z,103055.69
2022-11-12T08:38:45.390Z,103056.16
2022-11-12T08:41:14.236Z,103072.50
2022-11-12T08:43:42.303Z,103062.50
2022-11-12T08:46:10.161Z,103064.75
2022-11-12T08:48:37.521Z,103061.66
2022-11-12T08:51:05.685Z,103060.34
2022-11-12T08:53:33.015Z,103053.78
2022-11-12T08:56:00.238Z,103049.00
2022-11-12T08:58:27.918Z,103049.09
2022-11-12T09:00:56.200Z,103058.53
2022-11-12T09:03:25.721Z,103056.44
2022-11-12T09:05:53.856Z,103056.88
2022-11-12T09:08:24.236Z,103053.13
2022-11-12T09:10:52.078Z,103041.94
2022-11-12T09:13:19.873Z,103051.47
2022-11-12T09:15:47.269Z,103044.97
2022-11-12T09:18:17.838Z,103049.94
2022-11-12T09:20:45.417Z,103054.75
2022-11-12T09:23:14.723Z,103050.81
2022-11-12T09:25:42.412Z,103060.00
2022-11-12T09:28:11.853Z,103058.97
2022-11-12T09:30:46.481Z,103062.13
2022-11-12T09:33:33.820Z,103065.03
2022-11-12T09:36:03.437Z,103063.69
2022-11-12T09:38:31.341Z,103051.88
2022-11-12T09:41:24.130Z,103052.31
2022-11-12T09:43:54.118Z,103055.66
2022-11-12T09:46:28.778Z,103055.41
2022-11-12T09:49:05.393Z,103057.84
2022-11-12T09:51:38.724Z,103058.50
2022-11-12T09:54:21.433Z,103054.91
2022-11-12T09:56:53.085Z,103054.44
2022-11-12T09:59:21.711Z,103042.78
2022-11-12T10:02:25.424Z,103058.59
2022-11-12T10:05:10.800Z,103062.81
2022-11-12T10:08:16.346Z,103066.13
2022-11-12T10:10:49.792Z,103060.91
2022-11-12T10:13:19.882Z,103065.78
2022-11-12T10:16:40.904Z,103061.16
2022-11-12T10:19:29.969Z,103058.06
2022-11-12T10:21:59.693Z,103064.13
2022-11-12T10:24:33.638Z,103063.06
2022-11-12T10:27:01.027Z,103060.09
2022-11-12T10:30:01.502Z,103049.28
2022-11-12T10:32:28.510Z,103056.31
2022-11-12T10:34:55.533Z,103052.63
2022-11-12T10:37:39.043Z,103053.16
2022-11-12T10:40:20.964Z,103051.16
2022-11-12T10:43:00.077Z,103050.16
2022-11-12T10:45:27.564Z,103047.34
2022-11-12T10:47:54.931Z,103052.09
2022-11-12T10:50:31.785Z,103038.19
2022-11-12T10:53:02.063Z,103035.41
2022-11-12T10:55:31.415Z,103039.25
2022-11-12T10:58:27.600Z,103038.03
2022-11-12T11:01:12.273Z,103040.00
2022-11-12T11:03:50.519Z,103028.22
2022-11-12T11:06:17.458Z,103020.78
2022-11-12T11:08:48.946Z,103029.00
2022-11-12T11:11:29.750Z,103017.06
2022-11-12T11:14:08.901Z,103026.41
2022-11-12T11:16:50.198Z,103020.81
2022-11-12T11:19:17.363Z,103020.53
2022-11-12T11:21:50.419Z,103021.69
2022-11-12T11:24:51.789Z,103026.53
2022-11-12T11:28:02.449Z,103032.22
2022-11-12T11:30:29.702Z,103029.44
2022-11-12T11:33:02.603Z,103019.00
2022-11-12T11:35:53.530Z,103018.06
2022-11-12T11:38:40.617Z,103020.34
2022-11-12T11:41:40.585Z,103012.47
2022-11-12T11:44:29.483Z,103011.44
2022-11-12T11:47:21.101Z,103012.66
2022-11-12T11:50:03.765Z,103015.41
2022-11-12T11:52:44.711Z,103012.81
2022-11-12T11:55:36.935Z,103008.44
2022-11-12T11:58:19.386Z,103005.06
2022-11-12T12:01:17.710Z,103005.22
2022-11-12T12:04:06.682Z,103008.31
2022-11-12T12:07:00.848Z,102995.69
2022-11-12T12:09:57.446Z,102995.13
2022-11-12T12:12:36.413Z,102996.25
2022-11-12T12:15:40.826Z,102993.91
2022-11-12T12:18:38.900Z,102976.19
2022-11-12T12:21:17.467Z,102988.09
2022-11-12T12:23:56.277Z,102983.22
2022-11-12T12:26:45.211Z,102983.44
2022-11-12T12:29:15.250Z,102974.88
2022-11-12T12:31:50.911Z,102966.50
2022-11-12T12:34:32.159Z,102973.94
2022-11-12T12:37:07.786Z,102966.31
2022-11-12T12:39:53.391Z,102965.66
2022-11-12T12:42:26.643Z,102959.97
2022-11-12T12:45:22.983Z,102953.97
2022-11-12T12:47:52.126Z,102956.63
2022-11-12T12:50:21.341Z,102948.84
2022-11-12T12:53:02.722Z,102946.66
2022-11-12T12:55:43.122Z,102949.38
2022-11-12T12:58:31.625Z,102941.00
2022-11-12T13:01:34.165Z,102936.84
2022-11-12T13:04:05.348Z,102929.38
2022-11-12T13:06:40.166Z,102921.00
2022-11-12T13:09:24.059Z,102913.31
2022-11-12T13:12:06.450Z,102912.63
2022-11-12T13:14:36.450Z,102912.63
2022-11-12T13:17:16.616Z,102913.44
2022-11-12T13:19:53.532Z,102914.94
2022-11-12T13:22:20.523Z,102912.47
2022-11-12T13:25:12.198Z,102916.78
2022-11-12T13:27:39.175Z,102917.66
2022-11-12T13:30:17.820Z,102913.31
2022-11-12T13:32:47.533Z,102909.81
2022-11-12T13:35:22.137Z,102906.34
2022-11-12T13:38:13.310Z,102905.59
2022-11-12T13:40:44.399Z,102905.81
2022-11-12T13:43:32.781Z,102905.13
2022-11-12T13:46:07.571Z,102901.88
2022-11-12T13:48:42.797Z,102884.66
2022-11-12T13:51:29.551Z,102903.25
2022-11-12T13:53:56.553Z,102903.63
2022-11-12T13:56:28.398Z,102887.28
2022-11-12T13:59:07.796Z,102891.41
2022-11-12T14:01:34.806Z,102896.88
2022-11-12T14:04:01.925Z,102904.00
2022-11-12T14:06:37.522Z,102893.78
2022-11-12T14:09:13.272Z,102886.22
2022-11-12T14:12:09.310Z,102887.22
2022-11-12T14:15:10.550Z,102885.81
2022-11-12T14:17:55.852Z,102874.09
2022-11-12T14:20:32.180Z,102877.09
2022-11-12T14:23:24.563Z,102875.00
2022-11-12T14:25:54.720Z,102876.28
2022-11-12T14:28:32.901Z,102868.13
2022-11-12T14:31:01.554Z,102872.78
2022-11-12T14:33:30.572Z,102853.44
2022-11-12T14:36:14.840Z,102858.38
2022-11-12T14:38:49.179Z,102855.50
2022-11-12T14:41:24.255Z,102849.19
2022-11-12T14:44:11.685Z,102846.25
2022-11-12T14:46:52.023Z,102846.53
2022-11-12T14:49:34.032Z,102835.00
2022-11-12T14:52:19.010Z,102843.41
2022-11-12T14:54:50.654Z,102846.22
2022-11-12T14:57:23.300Z,102840.22
2022-11-12T14:59:50.354Z,102842.03
2022-11-12T15:02:41.679Z,102852.56
2022-11-12T15:05:13.147Z,102851.81
2022-11-12T15:07:58.710Z,102848.66
2022-11-12T15:10:41.626Z,102849.78
2022-11-12T15:13:23.501Z,102843.94
2022-11-12T15:15:54.354Z,102845.16
2022-11-12T15:18:25.208Z,102842.97
2022-11-12T15:21:11.000Z,102840.69
2022-11-12T15:23:51.194Z,102846.22
2022-11-12T15:26:46.565Z,102844.00
2022-11-12T15:29:24.447Z,102841.84
2022-11-12T15:31:55.013Z,102833.84
2022-11-12T15:34:40.142Z,102825.97
2022-11-12T15:37:19.109Z,102827.44
2022-11-12T15:39:59.019Z,102829.75
2022-11-12T15:42:33.872Z,102824.34
2022-11-12T15:45:03.660Z,102825.91
2022-11-12T15:47:30.855Z,102833.56
2022-11-12T15:49:59.086Z,102823.91
2022-11-12T15:52:26.504Z,102821.94
2022-11-12T15:54:53.657Z,102839.06
2022-11-12T15:57:24.726Z,102826.53
2022-11-12T16:00:07.891Z,102819.94
2022-11-12T16:02:35.530Z,102813.13
2022-11-12T16:05:02.685Z,102824.22
2022-11-12T16:07:29.726Z,102818.47
2022-11-12T16:09:56.809Z,102825.94
2022-11-12T16:12:24.201Z,102827.56
2022-11-12T16:14:51.265Z,102824.91
2022-11-12T16:17:19.145Z,102823.19
2022-11-12T16:19:46.300Z,102819.38
2022-11-12T16:22:13.435Z,102826.94
2022-11-12T16:24:41.376Z,102818.84
2022-11-12T16:27:13.464Z,102816.59
2022-11-12T16:29:41.079Z,102822.50
2022-11-12T16:32:12.894Z,102820.63
2022-11-12T16:34:41.486Z,102821.06
2022-11-12T16:37:12.936Z,102830.19
2022-11-12T16:39:42.922Z,102834.06
2022-11-12T16:42:10.962Z,102831.97
2022-11-12T16:44:37.948Z,102825.28
2022-11-12T16:47:05.677Z,102820.81
2022-11-12T16:49:38.236Z,102821.00
2022-11-12T16:52:08.609Z,102827.28
2022-11-12T16:54:39.227Z,102824.06
2022-11-12T16:57:06.580Z,102828.44
2022-11-12T16:59:33.671Z,102822.38
2022-11-12T17:02:00.733Z,102823.03
2022-11-12T17:04:27.759Z,102821.31
2022-11-12T17:06:54.784Z,102832.38
2022-11-12T17:09:21.813Z,102831.16
2022-11-12T17:11:49.363Z,102829.25
2022-11-12T17:14:18.302Z,102822.03
2022-11-12T17:16:46.311Z,102833.75
2022-11-12T17:19:13.323Z,102823.47
2022-11-12T17:21:40.345Z,102826.53
2022-11-12T17:24:10.467Z,102829.91
2022-11-12T17:26:37.922Z,102812.13
2022-11-12T17:29:08.103Z,102824.22
2022-11-12T17:31:35.684Z,102822.91
2022-11-12T17:34:05.384Z,102821.72
2022-11-12T17:36:32.617Z,102828.66
2022-11-12T17:39:00.361Z,102819.66
2022-11-12T17:41:31.058Z,102825.09
2022-11-12T17:43:59.996Z,102825.97
2022-11-12T17:46:28.410Z,102818.13
2022-11-12T17:48:56.016Z,102815.56
2022-11-12T17:51:27.320Z,102811.13
2022-11-12T17:53:54.411Z,102813.25
2022-11-12T17:56:23.223Z,102818.88
2022-11-12T17:58:53.512Z,102821.84
2022-11-12T18:01:24.929Z,102829.41
2022-11-12T18:03:54.646Z,102823.19
2022-11-12T18:06:28.756Z,102825.59
2022-11-12T18:09:17.025Z,102827.72
2022-11-12T18:11:48.491Z,102824.72
2022-11-12T18:14:15.731Z,102818.81
2022-11-12T18:16:43.243Z,102829.03
2022-11-12T18:19:11.278Z,102825.31
2022-11-12T18:21:40.225Z,102827.69
2022-11-12T18:24:12.381Z,102820.13
2022-11-12T18:26:39.474Z,102825.38
2022-11-12T18:29:07.488Z,102819.94
2022-11-12T18:31:34.699Z,102823.84
2022-11-12T18:34:01.840Z,102825.34
2022-11-12T18:36:29.087Z,102819.81
2022-11-12T18:38:56.320Z,102819.63
2022-11-12T18:41:30.069Z,102787.13
2022-11-12T18:43:57.072Z,102822.56
2022-11-12T18:46:23.973Z,102824.84
2022-11-12T18:48:51.070Z,102828.66
2022-11-12T18:51:19.457Z,102823.84
2022-11-12T18:53:47.605Z,102830.38
2022-11-12T18:56:19.585Z,102823.25
2022-11-12T18:58:47.320Z,102826.63
2022-11-12T19:01:16.876Z,102820.59
2022-11-12T19:03:44.358Z,102815.94
2022-11-12T19:06:14.699Z,102814.25
2022-11-12T19:08:41.852Z,102815.03
2022-11-12T19:11:13.637Z,102803.56
2022-11-12T19:13:41.629Z,102805.94
2022-11-12T19:16:11.738Z,102812.72
2022-11-12T19:18:40.728Z,102811.41
2022-11-12T19:21:10.740Z,102820.63
2022-11-12T19:23:38.961Z,102824.72
2022-11-12T19:26:07.734Z,102820.25
2022-11-12T19:28:35.455Z,102827.00
2022-11-12T19:31:08.020Z,102823.41
2022-11-12T19:33:35.577Z,102820.75
2022-11-12T19:36:10.792Z,102819.88
2022-11-12T19:38:37.876Z,102810.94
2022-11-12T19:41:05.740Z,102813.34
2022-11-12T19:43:33.460Z,102814.72
2022-11-12T19:46:01.266Z,102809.97
2022-11-12T19:48:28.699Z,102811.75
2022-11-12T19:51:00.150Z,102814.03
2022-11-12T19:53:44.729Z,102812.06
2022-11-12T19:56:14.155Z,102803.81
2022-11-12T19:58:45.224Z,102803.66
2022-11-12T20:01:14.731Z,102807.00
2022-11-12T20:03:42.214Z,102811.38
2022-11-12T20:06:20.389Z,102793.53
2022-11-12T20:08:47.521Z,102794.53
2022-11-12T20:11:16.195Z,102794.75
2022-11-12T20:13:43.228Z,102795.41
2022-11-12T20:16:22.247Z,102794.31
2022-11-12T20:18:55.753Z,102786.44
2022-11-12T20:21:24.053Z,102792.53
2022-11-12T20:23:51.061Z,102791.66
2022-11-12T20:26:18.155Z,102785.50
2022-11-12T20:28:45.278Z,102796.50
2022-11-12T20:31:14.804Z,102795.31
2022-11-12T20:33:42.798Z,102782.16
2022-11-12T20:36:15.377Z,102776.00
2022-11-12T20:38:44.177Z,102767.19
2022-11-12T20:41:14.547Z,102765.22
2022-11-12T20:43:41.946Z,102762.13
2022-11-12T20:46:11.016Z,102760.88
2022-11-12T20:48:43.155Z,102768.34
2022-11-12T20:51:25.282Z,102760.44
2022-11-12T20:54:00.087Z,102756.97
2022-11-12T20:56:30.256Z,102762.72
2022-11-12T20:58:58.435Z,102753.69
2022-11-12T21:01:27.125Z,102760.50
2022-11-12T21:03:54.400Z,102764.75
2022-11-12T21:06:23.771Z,102761.41
2022-11-12T21:08:50.843Z,102759.63
2022-11-12T21:11:20.602Z,102762.28
2022-11-12T21:13:47.751Z,102760.81
2022-11-12T21:16:14.899Z,102754.88
2022-11-12T21:18:42.701Z,102749.56
2022-11-12T21:21:10.940Z,102760.72
2022-11-12T21:23:41.138Z,102756.25
2022-11-12T21:26:17.229Z,102751.13
2022-11-12T21:28:54.975Z,102756.25
2022-11-12T21:31:24.355Z,102743.09
2022-11-12T21:34:04.188Z,102736.16
2022-11-12T21:36:34.040Z,102742.50
2022-11-12T21:39:02.417Z,102736.47
2022-11-12T21:41:31.895Z,102733.13
2022-11-12T21:43:59.061Z,102730.16
2022-11-12T21:46:29.239Z,102737.75
2022-11-12T21:48:56.859Z,102736.47
2022-11-12T21:51:29.018Z,102738.88
2022-11-12T21:53:58.175Z,102741.44
2022-11-12T21:56:25.819Z,102743.81
2022-11-12T21:58:54.369Z,102746.31
2022-11-12T22:01:25.080Z,102737.38
2022-11-12T22:03:53.940Z,102740.72
2022-11-12T22:06:23.804Z,102746.44
2022-11-12T22:08:52.912Z,102747.84
2022-11-12T22:11:21.037Z,102746.72
2022-11-12T22:13:48.174Z,102742.94
2022-11-12T22:16:18.401Z,102749.94
2022-11-12T22:18:47.612Z,102752.53
2022-11-12T22:21:39.724Z,102744.81
2022-11-12T22:24:09.927Z,102745.50
2022-11-12T22:26:36.964Z,102743.16
2022-11-12T22:29:04.375Z,102738.78
2022-11-12T22:31:32.734Z,102739.69
2022-11-12T22:34:02.162Z,102736.13
2022-11-12T22:36:31.150Z,102739.38
2022-11-12T22:38:58.625Z,102731.38
2022-11-12T22:41:28.629Z,102719.16
2022-11-12T22:43:58.131Z,102725.78
2022-11-12T22:46:27.764Z,102725.69
2022-11-12T22:48:55.588Z,102720.44
2022-11-12T22:51:25.584Z,102712.00
2022-11-12T22:53:54.794Z,102721.72
2022-11-12T22:56:22.510Z,102716.19
2022-11-12T22:58:52.742Z,102718.97
2022-11-12T23:01:27.558Z,102711.25
2022-11-12T23:03:57.164Z,102713.84
2022-11-12T23:06:25.305Z,102716.06
2022-11-12T23:08:56.550Z,102714.06
2022-11-12T23:11:26.106Z,102704.84
2022-11-12T23:13:54.674Z,102715.66
2022-11-12T23:16:27.498Z,102719.31
2022-11-12T23:18:54.969Z,102714.38
2022-11-12T23:21:24.442Z,102712.72
2022-11-12T23:23:51.790Z,102698.78
2022-11-12T23:26:22.771Z,102707.69
2022-11-12T23:28:53.040Z,102696.31
2022-11-12T23:31:23.335Z,102711.03
2022-11-12T23:33:52.770Z,102711.25
2022-11-12T23:36:21.084Z,102712.03
2022-11-12T23:38:48.390Z,102706.81
2022-11-12T23:41:18.941Z,102705.03
2022-11-12T23:43:45.983Z,102707.59
2022-11-12T23:46:13.208Z,102706.69
2022-11-12T23:48:41.018Z,102697.78
2022-11-12T23:51:11.728Z,102696.00
2022-11-12T23:53:39.247Z,102696.78
2022-11-12T23:56:12.879Z,102695.00
2022-11-12T23:58:41.274Z,102692.41
